sensor_id;sensor_type;location;lat;lon;timestamp;P1;durP1;ratioP1;P2;durP2;ratioP2
66264;SDS011;53055;44.648;21.148;2022-11-20T00:01:40;16.00;;;10.75;;
66264;SDS011;53055;44.648;21.148;2022-11-20T00:04:07;16.23;;;10.63;;
66264;SDS011;53055;44.648;21.148;2022-11-20T00:06:34;17.55;;;11.15;;
66264;SDS011;53055;44.648;21.148;2022-11-20T00:09:00;18.08;;;11.38;;
66264;SDS011;53055;44.648;21.148;2022-11-20T00:11:27;24.08;;;15.25;;
66264;SDS011;53055;44.648;21.148;2022-11-20T00:13:54;13.48;;;8.00;;
66264;SDS011;53055;44.648;21.148;2022-11-20T00:16:21;10.07;;;5.45;;
66264;SDS011;53055;44.648;21.148;2022-11-20T00:18:48;7.45;;;3.55;;
66264;SDS011;53055;44.648;21.148;2022-11-20T00:21:15;8.20;;;3.63;;
66264;SDS011;53055;44.648;21.148;2022-11-20T00:23:42;9.55;;;3.95;;
66264;SDS011;53055;44.648;21.148;2022-11-20T00:26:09;12.80;;;6.68;;
66264;SDS011;53055;44.648;21.148;2022-11-20T00:28:35;22.13;;;13.18;;
66264;SDS011;53055;44.648;21.148;2022-11-20T00:31:02;11.75;;;5.15;;
66264;SDS011;53055;44.648;21.148;2022-11-20T00:33:28;7.97;;;3.20;;
66264;SDS011;53055;44.648;21.148;2022-11-20T00:35:58;9.55;;;3.88;;
66264;SDS011;53055;44.648;21.148;2022-11-20T00:38:25;17.58;;;9.90;;
66264;SDS011;53055;44.648;21.148;2022-11-20T00:40:54;10.80;;;6.65;;
66264;SDS011;53055;44.648;21.148;2022-11-20T00:43:20;8.27;;;4.32;;
66264;SDS011;53055;44.648;21.148;2022-11-20T00:45:46;11.35;;;7.18;;
66264;SDS011;53055;44.648;21.148;2022-11-20T00:48:12;12.43;;;9.18;;
66264;SDS011;53055;44.648;21.148;2022-11-20T00:50:39;22.10;;;16.98;;
66264;SDS011;53055;44.648;21.148;2022-11-20T00:53:06;16.25;;;14.55;;
66264;SDS011;53055;44.648;21.148;2022-11-20T00:55:32;18.50;;;11.48;;
66264;SDS011;53055;44.648;21.148;2022-11-20T00:57:58;27.48;;;18.50;;
66264;SDS011;53055;44.648;21.148;2022-11-20T01:00:24;12.63;;;6.90;;
66264;SDS011;53055;44.648;21.148;2022-11-20T01:02:50;11.77;;;9.50;;
66264;SDS011;53055;44.648;21.148;2022-11-20T01:05:16;12.02;;;7.75;;
66264;SDS011;53055;44.648;21.148;2022-11-20T01:07:42;12.35;;;8.95;;
66264;SDS011;53055;44.648;21.148;2022-11-20T01:10:08;11.68;;;8.35;;
66264;SDS011;53055;44.648;21.148;2022-11-20T01:12:34;12.63;;;9.23;;
66264;SDS011;53055;44.648;21.148;2022-11-20T01:15:00;17.00;;;11.57;;
66264;SDS011;53055;44.648;21.148;2022-11-20T01:17:26;21.27;;;14.80;;
66264;SDS011;53055;44.648;21.148;2022-11-20T01:19:52;13.57;;;9.85;;
66264;SDS011;53055;44.648;21.148;2022-11-20T01:22:18;8.55;;;5.18;;
66264;SDS011;53055;44.648;21.148;2022-11-20T01:24:44;9.05;;;4.07;;
66264;SDS011;53055;44.648;21.148;2022-11-20T01:27:10;7.32;;;3.80;;
66264;SDS011;53055;44.648;21.148;2022-11-20T01:29:36;8.20;;;4.82;;
66264;SDS011;53055;44.648;21.148;2022-11-20T01:32:02;8.70;;;4.93;;
66264;SDS011;53055;44.648;21.148;2022-11-20T01:34:28;8.57;;;4.10;;
66264;SDS011;53055;44.648;21.148;2022-11-20T01:36:54;15.35;;;9.57;;
66264;SDS011;53055;44.648;21.148;2022-11-20T01:39:24;18.08;;;11.40;;
66264;SDS011;53055;44.648;21.148;2022-11-20T01:41:51;10.07;;;6.72;;
66264;SDS011;53055;44.648;21.148;2022-11-20T01:44:55;13.38;;;8.73;;
66264;SDS011;53055;44.648;21.148;2022-11-20T01:47:27;14.63;;;9.60;;
66264;SDS011;53055;44.648;21.148;2022-11-20T01:50:14;10.90;;;7.03;;
66264;SDS011;53055;44.648;21.148;2022-11-20T01:52:43;11.55;;;7.43;;
66264;SDS011;53055;44.648;21.148;2022-11-20T01:55:12;14.05;;;10.27;;
66264;SDS011;53055;44.648;21.148;2022-11-20T01:57:39;10.98;;;6.70;;
66264;SDS011;53055;44.648;21.148;2022-11-20T02:00:10;9.88;;;6.40;;
66264;SDS011;53055;44.648;21.148;2022-11-20T02:02:36;13.57;;;7.90;;
66264;SDS011;53055;44.648;21.148;2022-11-20T02:05:07;9.90;;;6.07;;
66264;SDS011;53055;44.648;21.148;2022-11-20T02:07:35;6.22;;;2.80;;
66264;SDS011;53055;44.648;21.148;2022-11-20T02:10:01;11.15;;;6.93;;
66264;SDS011;53055;44.648;21.148;2022-11-20T02:12:27;9.75;;;5.60;;
66264;SDS011;53055;44.648;21.148;2022-11-20T02:15:12;13.30;;;7.15;;
66264;SDS011;53055;44.648;21.148;2022-11-20T02:17:38;10.57;;;5.97;;
66264;SDS011;53055;44.648;21.148;2022-11-20T02:20:04;7.70;;;3.90;;
66264;SDS011;53055;44.648;21.148;2022-11-20T02:22:35;8.15;;;4.68;;
66264;SDS011;53055;44.648;21.148;2022-11-20T02:27:30;10.15;;;6.15;;
66264;SDS011;53055;44.648;21.148;2022-11-20T02:30:03;8.77;;;4.70;;
66264;SDS011;53055;44.648;21.148;2022-11-20T02:32:34;9.45;;;5.13;;
66264;SDS011;53055;44.648;21.148;2022-11-20T02:35:37;8.50;;;4.90;;
66264;SDS011;53055;44.648;21.148;2022-11-20T02:37:57;9.82;;;5.40;;
66264;SDS011;53055;44.648;21.148;2022-11-20T02:40:23;7.65;;;4.30;;
66264;SDS011;53055;44.648;21.148;2022-11-20T02:42:53;6.32;;;3.05;;
66264;SDS011;53055;44.648;21.148;2022-11-20T02:45:19;5.28;;;2.78;;
66264;SDS011;53055;44.648;21.148;2022-11-20T02:47:45;6.97;;;3.33;;
66264;SDS011;53055;44.648;21.148;2022-11-20T02:50:11;6.47;;;3.08;;
66264;SDS011;53055;44.648;21.148;2022-11-20T02:52:37;7.10;;;3.70;;
66264;SDS011;53055;44.648;21.148;2022-11-20T02:55:04;5.13;;;2.47;;
66264;SDS011;53055;44.648;21.148;2022-11-20T02:57:30;5.70;;;2.78;;
66264;SDS011;53055;44.648;21.148;2022-11-20T02:59:56;5.78;;;3.05;;
66264;SDS011;53055;44.648;21.148;2022-11-20T03:02:22;6.25;;;2.97;;
66264;SDS011;53055;44.648;21.148;2022-11-20T03:04:48;6.20;;;3.10;;
66264;SDS011;53055;44.648;21.148;2022-11-20T03:07:14;5.60;;;2.55;;
66264;SDS011;53055;44.648;21.148;2022-11-20T03:09:40;4.95;;;2.55;;
66264;SDS011;53055;44.648;21.148;2022-11-20T03:12:06;5.32;;;2.40;;
66264;SDS011;53055;44.648;21.148;2022-11-20T03:14:32;8.63;;;3.80;;
66264;SDS011;53055;44.648;21.148;2022-11-20T03:16:58;6.00;;;2.50;;
66264;SDS011;53055;44.648;21.148;2022-11-20T03:19:24;6.50;;;3.55;;
66264;SDS011;53055;44.648;21.148;2022-11-20T03:21:50;8.25;;;4.85;;
66264;SDS011;53055;44.648;21.148;2022-11-20T03:24:16;9.75;;;6.65;;
66264;SDS011;53055;44.648;21.148;2022-11-20T03:26:42;14.10;;;9.57;;
66264;SDS011;53055;44.648;21.148;2022-11-20T03:29:08;9.32;;;6.65;;
66264;SDS011;53055;44.648;21.148;2022-11-20T03:31:35;5.20;;;2.53;;
66264;SDS011;53055;44.648;21.148;2022-11-20T03:34:02;5.38;;;2.63;;
66264;SDS011;53055;44.648;21.148;2022-11-20T03:36:28;5.65;;;2.70;;
66264;SDS011;53055;44.648;21.148;2022-11-20T03:38:55;6.97;;;4.30;;
66264;SDS011;53055;44.648;21.148;2022-11-20T03:41:25;12.80;;;9.80;;
66264;SDS011;53055;44.648;21.148;2022-11-20T03:43:53;8.93;;;5.22;;
66264;SDS011;53055;44.648;21.148;2022-11-20T03:46:19;7.63;;;4.93;;
66264;SDS011;53055;44.648;21.148;2022-11-20T03:48:46;7.75;;;5.25;;
66264;SDS011;53055;44.648;21.148;2022-11-20T03:51:15;7.80;;;5.45;;
66264;SDS011;53055;44.648;21.148;2022-11-20T03:53:42;9.27;;;5.85;;
66264;SDS011;53055;44.648;21.148;2022-11-20T03:56:09;9.48;;;6.35;;
66264;SDS011;53055;44.648;21.148;2022-11-20T03:58:36;12.00;;;6.60;;
66264;SDS011;53055;44.648;21.148;2022-11-20T04:01:06;10.43;;;5.82;;
66264;SDS011;53055;44.648;21.148;2022-11-20T04:03:32;8.48;;;5.05;;
66264;SDS011;53055;44.648;21.148;2022-11-20T04:06:08;8.40;;;4.82;;
66264;SDS011;53055;44.648;21.148;2022-11-20T04:08:35;7.53;;;4.43;;
66264;SDS011;53055;44.648;21.148;2022-11-20T04:13:36;7.88;;;4.78;;
66264;SDS011;53055;44.648;21.148;2022-11-20T04:16:02;8.27;;;4.68;;
66264;SDS011;53055;44.648;21.148;2022-11-20T04:18:28;7.82;;;3.97;;
66264;SDS011;53055;44.648;21.148;2022-11-20T04:20:55;8.02;;;3.67;;
66264;SDS011;53055;44.648;21.148;2022-11-20T04:23:22;7.28;;;3.40;;
66264;SDS011;53055;44.648;21.148;2022-11-20T04:25:48;6.60;;;3.30;;
66264;SDS011;53055;44.648;21.148;2022-11-20T04:28:14;6.72;;;3.28;;
66264;SDS011;53055;44.648;21.148;2022-11-20T04:30:40;5.30;;;3.13;;
66264;SDS011;53055;44.648;21.148;2022-11-20T04:33:06;5.53;;;2.92;;
66264;SDS011;53055;44.648;21.148;2022-11-20T04:35:35;5.55;;;3.17;;
66264;SDS011;53055;44.648;21.148;2022-11-20T04:38:01;5.60;;;3.03;;
66264;SDS011;53055;44.648;21.148;2022-11-20T04:40:28;5.80;;;2.97;;
66264;SDS011;53055;44.648;21.148;2022-11-20T04:42:54;4.70;;;2.50;;
66264;SDS011;53055;44.648;21.148;2022-11-20T04:45:20;6.47;;;4.05;;
66264;SDS011;53055;44.648;21.148;2022-11-20T04:47:46;7.30;;;3.33;;
66264;SDS011;53055;44.648;21.148;2022-11-20T04:50:12;6.50;;;3.47;;
66264;SDS011;53055;44.648;21.148;2022-11-20T04:52:38;5.97;;;3.38;;
66264;SDS011;53055;44.648;21.148;2022-11-20T04:55:05;6.90;;;3.47;;
66264;SDS011;53055;44.648;21.148;2022-11-20T04:57:31;4.75;;;2.50;;
66264;SDS011;53055;44.648;21.148;2022-11-20T04:59:57;6.47;;;3.47;;
66264;SDS011;53055;44.648;21.148;2022-11-20T05:02:23;6.55;;;3.17;;
66264;SDS011;53055;44.648;21.148;2022-11-20T05:04:49;7.35;;;3.63;;
66264;SDS011;53055;44.648;21.148;2022-11-20T05:07:15;5.70;;;2.95;;
66264;SDS011;53055;44.648;21.148;2022-11-20T05:09:41;7.32;;;3.92;;
66264;SDS011;53055;44.648;21.148;2022-11-20T05:12:07;5.40;;;3.08;;
66264;SDS011;53055;44.648;21.148;2022-11-20T05:14:33;6.13;;;3.50;;
66264;SDS011;53055;44.648;21.148;2022-11-20T05:16:59;8.82;;;5.45;;
66264;SDS011;53055;44.648;21.148;2022-11-20T05:19:25;5.65;;;3.03;;
66264;SDS011;53055;44.648;21.148;2022-11-20T05:21:51;8.85;;;4.82;;
66264;SDS011;53055;44.648;21.148;2022-11-20T05:24:17;9.07;;;5.93;;
66264;SDS011;53055;44.648;21.148;2022-11-20T05:26:43;59.53;;;53.03;;
66264;SDS011;53055;44.648;21.148;2022-11-20T05:29:10;10.95;;;8.48;;
66264;SDS011;53055;44.648;21.148;2022-11-20T05:31:38;9.20;;;5.55;;
66264;SDS011;53055;44.648;21.148;2022-11-20T05:34:04;6.45;;;4.13;;
66264;SDS011;53055;44.648;21.148;2022-11-20T05:36:30;5.60;;;3.42;;
66264;SDS011;53055;44.648;21.148;2022-11-20T05:38:56;6.45;;;3.90;;
66264;SDS011;53055;44.648;21.148;2022-11-20T05:41:22;6.50;;;3.80;;
66264;SDS011;53055;44.648;21.148;2022-11-20T05:43:49;5.63;;;3.17;;
66264;SDS011;53055;44.648;21.148;2022-11-20T05:46:16;5.43;;;2.97;;
66264;SDS011;53055;44.648;21.148;2022-11-20T05:48:43;5.28;;;3.20;;
66264;SDS011;53055;44.648;21.148;2022-11-20T05:51:10;4.90;;;2.72;;
66264;SDS011;53055;44.648;21.148;2022-11-20T05:53:37;5.13;;;2.80;;
66264;SDS011;53055;44.648;21.148;2022-11-20T05:56:10;6.07;;;3.63;;
66264;SDS011;53055;44.648;21.148;2022-11-20T06:01:08;7.68;;;4.88;;
66264;SDS011;53055;44.648;21.148;2022-11-20T06:03:34;8.20;;;4.60;;
66264;SDS011;53055;44.648;21.148;2022-11-20T06:06:01;7.55;;;5.10;;
66264;SDS011;53055;44.648;21.148;2022-11-20T06:08:27;8.27;;;5.43;;
66264;SDS011;53055;44.648;21.148;2022-11-20T06:10:53;9.68;;;5.57;;
66264;SDS011;53055;44.648;21.148;2022-11-20T06:13:19;7.22;;;4.63;;
66264;SDS011;53055;44.648;21.148;2022-11-20T06:15:52;7.22;;;4.78;;
66264;SDS011;53055;44.648;21.148;2022-11-20T06:18:18;6.28;;;3.88;;
66264;SDS011;53055;44.648;21.148;2022-11-20T06:20:44;6.78;;;4.30;;
66264;SDS011;53055;44.648;21.148;2022-11-20T06:23:10;6.97;;;4.70;;
66264;SDS011;53055;44.648;21.148;2022-11-20T06:25:37;7.25;;;4.78;;
66264;SDS011;53055;44.648;21.148;2022-11-20T06:28:03;7.07;;;5.10;;
66264;SDS011;53055;44.648;21.148;2022-11-20T06:30:29;7.38;;;4.85;;
66264;SDS011;53055;44.648;21.148;2022-11-20T06:32:55;7.75;;;5.05;;
66264;SDS011;53055;44.648;21.148;2022-11-20T06:35:21;8.88;;;5.32;;
66264;SDS011;53055;44.648;21.148;2022-11-20T06:37:47;7.07;;;4.88;;
66264;SDS011;53055;44.648;21.148;2022-11-20T06:40:13;8.88;;;5.10;;
66264;SDS011;53055;44.648;21.148;2022-11-20T06:42:39;7.47;;;5.50;;
66264;SDS011;53055;44.648;21.148;2022-11-20T06:45:05;6.85;;;4.93;;
66264;SDS011;53055;44.648;21.148;2022-11-20T06:47:32;8.55;;;6.18;;
66264;SDS011;53055;44.648;21.148;2022-11-20T06:49:58;7.40;;;5.60;;
66264;SDS011;53055;44.648;21.148;2022-11-20T06:52:24;8.52;;;5.85;;
66264;SDS011;53055;44.648;21.148;2022-11-20T06:54:50;9.32;;;6.32;;
66264;SDS011;53055;44.648;21.148;2022-11-20T06:57:16;8.00;;;5.40;;
66264;SDS011;53055;44.648;21.148;2022-11-20T06:59:42;8.38;;;6.15;;
66264;SDS011;53055;44.648;21.148;2022-11-20T07:02:11;8.50;;;6.13;;
66264;SDS011;53055;44.648;21.148;2022-11-20T07:04:38;7.72;;;5.95;;
66264;SDS011;53055;44.648;21.148;2022-11-20T07:07:04;8.57;;;5.63;;
66264;SDS011;53055;44.648;21.148;2022-11-20T07:09:31;8.10;;;5.80;;
66264;SDS011;53055;44.648;21.148;2022-11-20T07:11:57;8.90;;;5.88;;
66264;SDS011;53055;44.648;21.148;2022-11-20T07:14:23;7.93;;;5.45;;
66264;SDS011;53055;44.648;21.148;2022-11-20T07:16:49;8.18;;;5.40;;
66264;SDS011;53055;44.648;21.148;2022-11-20T07:19:15;8.45;;;5.45;;
66264;SDS011;53055;44.648;21.148;2022-11-20T07:21:41;8.85;;;5.55;;
66264;SDS011;53055;44.648;21.148;2022-11-20T07:24:07;7.88;;;5.53;;
66264;SDS011;53055;44.648;21.148;2022-11-20T07:26:33;8.45;;;5.63;;
66264;SDS011;53055;44.648;21.148;2022-11-20T07:29:00;7.70;;;5.32;;
66264;SDS011;53055;44.648;21.148;2022-11-20T07:31:26;9.32;;;6.10;;
66264;SDS011;53055;44.648;21.148;2022-11-20T07:33:52;8.85;;;6.85;;
66264;SDS011;53055;44.648;21.148;2022-11-20T07:36:18;9.70;;;7.15;;
66264;SDS011;53055;44.648;21.148;2022-11-20T07:38:44;10.52;;;7.43;;
66264;SDS011;53055;44.648;21.148;2022-11-20T07:41:10;10.23;;;7.55;;
66264;SDS011;53055;44.648;21.148;2022-11-20T07:43:36;12.88;;;8.70;;
66264;SDS011;53055;44.648;21.148;2022-11-20T07:46:02;14.95;;;10.20;;
66264;SDS011;53055;44.648;21.148;2022-11-20T07:48:29;12.80;;;9.70;;
66264;SDS011;53055;44.648;21.148;2022-11-20T07:50:55;16.13;;;11.45;;
66264;SDS011;53055;44.648;21.148;2022-11-20T07:53:21;20.20;;;14.52;;
66264;SDS011;53055;44.648;21.148;2022-11-20T07:55:47;13.88;;;10.80;;
66264;SDS011;53055;44.648;21.148;2022-11-20T07:58:14;15.63;;;10.95;;
66264;SDS011;53055;44.648;21.148;2022-11-20T08:00:40;21.95;;;13.00;;
66264;SDS011;53055;44.648;21.148;2022-11-20T08:03:07;26.92;;;15.25;;
66264;SDS011;53055;44.648;21.148;2022-11-20T08:05:33;24.45;;;14.73;;
66264;SDS011;53055;44.648;21.148;2022-11-20T08:07:59;25.08;;;17.15;;
66264;SDS011;53055;44.648;21.148;2022-11-20T08:10:25;28.40;;;20.15;;
66264;SDS011;53055;44.648;21.148;2022-11-20T08:12:52;32.17;;;21.98;;
66264;SDS011;53055;44.648;21.148;2022-11-20T08:15:38;34.13;;;23.00;;
66264;SDS011;53055;44.648;21.148;2022-11-20T08:20:30;45.47;;;27.23;;
66264;SDS011;53055;44.648;21.148;2022-11-20T08:23:02;40.42;;;25.30;;
66264;SDS011;53055;44.648;21.148;2022-11-20T08:25:30;36.75;;;25.90;;
66264;SDS011;53055;44.648;21.148;2022-11-20T08:27:57;37.05;;;25.35;;
66264;SDS011;53055;44.648;21.148;2022-11-20T08:30:23;35.90;;;23.88;;
66264;SDS011;53055;44.648;21.148;2022-11-20T08:32:49;45.53;;;25.85;;
66264;SDS011;53055;44.648;21.148;2022-11-20T08:35:15;40.80;;;24.65;;
66264;SDS011;53055;44.648;21.148;2022-11-20T08:37:41;38.95;;;23.88;;
66264;SDS011;53055;44.648;21.148;2022-11-20T08:40:10;36.25;;;22.77;;
66264;SDS011;53055;44.648;21.148;2022-11-20T08:42:36;34.97;;;23.10;;
66264;SDS011;53055;44.648;21.148;2022-11-20T08:45:03;34.97;;;22.25;;
66264;SDS011;53055;44.648;21.148;2022-11-20T08:47:29;32.55;;;22.50;;
66264;SDS011;53055;44.648;21.148;2022-11-20T08:49:55;39.13;;;22.35;;
66264;SDS011;53055;44.648;21.148;2022-11-20T08:52:21;33.17;;;22.23;;
66264;SDS011;53055;44.648;21.148;2022-11-20T08:54:47;32.25;;;22.15;;
66264;SDS011;53055;44.648;21.148;2022-11-20T08:57:13;35.45;;;25.10;;
66264;SDS011;53055;44.648;21.148;2022-11-20T08:59:39;39.03;;;24.48;;
66264;SDS011;53055;44.648;21.148;2022-11-20T09:02:05;37.10;;;23.80;;
66264;SDS011;53055;44.648;21.148;2022-11-20T09:04:31;35.25;;;21.38;;
66264;SDS011;53055;44.648;21.148;2022-11-20T09:06:59;31.73;;;21.85;;
66264;SDS011;53055;44.648;21.148;2022-11-20T09:09:25;38.28;;;23.70;;
66264;SDS011;53055;44.648;21.148;2022-11-20T09:11:51;33.75;;;22.48;;
66264;SDS011;53055;44.648;21.148;2022-11-20T09:14:17;34.88;;;22.52;;
66264;SDS011;53055;44.648;21.148;2022-11-20T09:16:44;33.03;;;22.83;;
66264;SDS011;53055;44.648;21.148;2022-11-20T09:19:11;34.03;;;23.60;;
66264;SDS011;53055;44.648;21.148;2022-11-20T09:21:37;34.85;;;23.90;;
66264;SDS011;53055;44.648;21.148;2022-11-20T09:24:04;32.30;;;23.40;;
66264;SDS011;53055;44.648;21.148;2022-11-20T09:26:30;37.50;;;25.30;;
66264;SDS011;53055;44.648;21.148;2022-11-20T09:28:56;36.75;;;25.48;;
66264;SDS011;53055;44.648;21.148;2022-11-20T09:31:23;42.83;;;25.58;;
66264;SDS011;53055;44.648;21.148;2022-11-20T09:33:50;30.58;;;22.27;;
66264;SDS011;53055;44.648;21.148;2022-11-20T09:36:16;29.00;;;21.52;;
66264;SDS011;53055;44.648;21.148;2022-11-20T09:38:43;38.75;;;21.73;;
66264;SDS011;53055;44.648;21.148;2022-11-20T09:41:16;34.45;;;22.50;;
66264;SDS011;53055;44.648;21.148;2022-11-20T09:46:26;29.90;;;21.63;;
66264;SDS011;53055;44.648;21.148;2022-11-20T09:51:46;34.05;;;24.38;;
66264;SDS011;53055;44.648;21.148;2022-11-20T09:56:42;36.17;;;28.13;;
66264;SDS011;53055;44.648;21.148;2022-11-20T10:01:59;42.05;;;31.85;;
66264;SDS011;53055;44.648;21.148;2022-11-20T10:04:26;40.42;;;30.20;;
66264;SDS011;53055;44.648;21.148;2022-11-20T10:09:24;34.08;;;29.52;;
66264;SDS011;53055;44.648;21.148;2022-11-20T10:12:37;32.53;;;28.65;;
66264;SDS011;53055;44.648;21.148;2022-11-20T10:20:01;33.15;;;28.23;;
66264;SDS011;53055;44.648;21.148;2022-11-20T10:25:20;32.47;;;26.90;;
66264;SDS011;53055;44.648;21.148;2022-11-20T10:30:31;32.75;;;24.98;;
66264;SDS011;53055;44.648;21.148;2022-11-20T10:33:03;32.10;;;24.63;;
66264;SDS011;53055;44.648;21.148;2022-11-20T10:37:59;31.02;;;24.90;;
66264;SDS011;53055;44.648;21.148;2022-11-20T10:42:56;37.58;;;28.80;;
66264;SDS011;53055;44.648;21.148;2022-11-20T10:47:56;29.20;;;23.25;;
66264;SDS011;53055;44.648;21.148;2022-11-20T10:50:25;26.05;;;21.63;;
66264;SDS011;53055;44.648;21.148;2022-11-20T10:53:03;26.95;;;21.67;;
66264;SDS011;53055;44.648;21.148;2022-11-20T10:55:41;29.27;;;24.25;;
66264;SDS011;53055;44.648;21.148;2022-11-20T10:58:21;29.83;;;23.38;;
66264;SDS011;53055;44.648;21.148;2022-11-20T11:00:50;27.70;;;21.75;;
66264;SDS011;53055;44.648;21.148;2022-11-20T11:03:27;24.27;;;19.48;;
66264;SDS011;53055;44.648;21.148;2022-11-20T11:06:05;23.55;;;18.52;;
66264;SDS011;53055;44.648;21.148;2022-11-20T11:08:34;23.48;;;17.95;;
66264;SDS011;53055;44.648;21.148;2022-11-20T11:11:02;23.42;;;17.80;;
66264;SDS011;53055;44.648;21.148;2022-11-20T11:13:31;23.02;;;17.98;;
66264;SDS011;53055;44.648;21.148;2022-11-20T11:15:57;20.45;;;16.20;;
66264;SDS011;53055;44.648;21.148;2022-11-20T11:18:27;20.65;;;16.10;;
66264;SDS011;53055;44.648;21.148;2022-11-20T11:20:53;19.88;;;16.73;;
66264;SDS011;53055;44.648;21.148;2022-11-20T11:23:36;19.77;;;15.80;;
66264;SDS011;53055;44.648;21.148;2022-11-20T11:26:03;19.27;;;16.80;;
66264;SDS011;53055;44.648;21.148;2022-11-20T11:28:30;16.50;;;14.75;;
66264;SDS011;53055;44.648;21.148;2022-11-20T11:30:56;16.85;;;14.80;;
66264;SDS011;53055;44.648;21.148;2022-11-20T11:33:24;20.77;;;15.48;;
66264;SDS011;53055;44.648;21.148;2022-11-20T11:35:59;17.85;;;15.55;;
66264;SDS011;53055;44.648;21.148;2022-11-20T11:38:39;20.55;;;16.75;;
66264;SDS011;53055;44.648;21.148;2022-11-20T11:41:06;18.23;;;15.00;;
66264;SDS011;53055;44.648;21.148;2022-11-20T11:43:33;15.40;;;12.98;;
66264;SDS011;53055;44.648;21.148;2022-11-20T11:46:25;26.70;;;24.00;;
66264;SDS011;53055;44.648;21.148;2022-11-20T11:48:57;29.63;;;26.60;;
66264;SDS011;53055;44.648;21.148;2022-11-20T11:51:25;18.65;;;15.40;;
66264;SDS011;53055;44.648;21.148;2022-11-20T11:53:54;18.38;;;16.30;;
66264;SDS011;53055;44.648;21.148;2022-11-20T11:56:20;14.60;;;12.18;;
66264;SDS011;53055;44.648;21.148;2022-11-20T11:58:47;22.67;;;18.75;;
66264;SDS011;53055;44.648;21.148;2022-11-20T12:01:19;40.72;;;32.65;;
66264;SDS011;53055;44.648;21.148;2022-11-20T12:03:52;26.85;;;24.10;;
66264;SDS011;53055;44.648;21.148;2022-11-20T12:06:21;16.88;;;14.07;;
66264;SDS011;53055;44.648;21.148;2022-11-20T12:08:49;19.60;;;16.67;;
66264;SDS011;53055;44.648;21.148;2022-11-20T12:11:24;26.15;;;21.30;;
66264;SDS011;53055;44.648;21.148;2022-11-20T12:14:00;19.25;;;16.48;;
66264;SDS011;53055;44.648;21.148;2022-11-20T12:16:29;17.25;;;13.23;;
66264;SDS011;53055;44.648;21.148;2022-11-20T12:18:56;19.23;;;15.65;;
66264;SDS011;53055;44.648;21.148;2022-11-20T12:21:28;19.50;;;15.82;;
66264;SDS011;53055;44.648;21.148;2022-11-20T12:37:08;22.15;;;18.70;;
66264;SDS011;53055;44.648;21.148;2022-11-20T12:39:58;29.30;;;24.92;;
66264;SDS011;53055;44.648;21.148;2022-11-20T13:03:42;20.33;;;17.13;;
66264;SDS011;53055;44.648;21.148;2022-11-20T13:06:12;21.17;;;17.50;;
66264;SDS011;53055;44.648;21.148;2022-11-20T13:08:40;20.35;;;15.48;;
66264;SDS011;53055;44.648;21.148;2022-11-20T13:18:39;20.17;;;15.35;;
66264;SDS011;53055;44.648;21.148;2022-11-20T13:23:52;18.92;;;15.23;;
66264;SDS011;53055;44.648;21.148;2022-11-20T13:26:22;23.10;;;17.33;;
66264;SDS011;53055;44.648;21.148;2022-11-20T13:28:59;30.48;;;24.75;;
66264;SDS011;53055;44.648;21.148;2022-11-20T13:31:31;30.67;;;26.65;;
66264;SDS011;53055;44.648;21.148;2022-11-20T13:33:58;17.45;;;14.05;;
66264;SDS011;53055;44.648;21.148;2022-11-20T13:36:26;18.15;;;15.05;;
66264;SDS011;53055;44.648;21.148;2022-11-20T13:38:53;18.88;;;16.23;;
66264;SDS011;53055;44.648;21.148;2022-11-20T13:41:30;17.70;;;14.43;;
66264;SDS011;53055;44.648;21.148;2022-11-20T13:43:59;25.70;;;22.92;;
66264;SDS011;53055;44.648;21.148;2022-11-20T13:46:34;19.05;;;16.55;;
66264;SDS011;53055;44.648;21.148;2022-11-20T13:49:05;19.00;;;15.93;;
66264;SDS011;53055;44.648;21.148;2022-11-20T13:51:49;19.20;;;14.88;;
66264;SDS011;53055;44.648;21.148;2022-11-20T13:54:22;17.80;;;15.32;;
66264;SDS011;53055;44.648;21.148;2022-11-20T13:56:58;18.45;;;15.80;;
66264;SDS011;53055;44.648;21.148;2022-11-20T13:59:40;28.83;;;25.70;;
66264;SDS011;53055;44.648;21.148;2022-11-20T14:02:17;22.75;;;20.08;;
66264;SDS011;53055;44.648;21.148;2022-11-20T14:04:45;19.27;;;17.17;;
66264;SDS011;53055;44.648;21.148;2022-11-20T14:07:12;16.77;;;14.98;;
66264;SDS011;53055;44.648;21.148;2022-11-20T14:09:38;18.65;;;14.98;;
66264;SDS011;53055;44.648;21.148;2022-11-20T14:12:13;17.45;;;14.20;;
66264;SDS011;53055;44.648;21.148;2022-11-20T14:14:47;27.25;;;19.50;;
66264;SDS011;53055;44.648;21.148;2022-11-20T14:19:55;97.13;;;56.40;;
66264;SDS011;53055;44.648;21.148;2022-11-20T14:22:24;30.83;;;21.88;;
66264;SDS011;53055;44.648;21.148;2022-11-20T14:25:01;27.52;;;19.90;;
66264;SDS011;53055;44.648;21.148;2022-11-20T14:27:28;30.67;;;23.20;;
66264;SDS011;53055;44.648;21.148;2022-11-20T14:29:54;46.47;;;31.42;;
66264;SDS011;53055;44.648;21.148;2022-11-20T14:32:21;15.55;;;12.35;;
66264;SDS011;53055;44.648;21.148;2022-11-20T14:34:49;19.02;;;13.55;;
66264;SDS011;53055;44.648;21.148;2022-11-20T14:37:20;17.70;;;12.98;;
66264;SDS011;53055;44.648;21.148;2022-11-20T14:39:48;46.10;;;29.85;;
66264;SDS011;53055;44.648;21.148;2022-11-20T14:42:19;16.27;;;13.10;;
66264;SDS011;53055;44.648;21.148;2022-11-20T14:44:46;16.45;;;12.75;;
66264;SDS011;53055;44.648;21.148;2022-11-20T14:47:13;18.45;;;13.82;;
66264;SDS011;53055;44.648;21.148;2022-11-20T14:49:40;16.92;;;13.80;;
66264;SDS011;53055;44.648;21.148;2022-11-20T14:52:11;14.68;;;12.05;;
66264;SDS011;53055;44.648;21.148;2022-11-20T14:54:45;14.38;;;12.40;;
66264;SDS011;53055;44.648;21.148;2022-11-20T14:57:22;13.77;;;11.48;;
66264;SDS011;53055;44.648;21.148;2022-11-20T14:59:48;19.15;;;15.07;;
66264;SDS011;53055;44.648;21.148;2022-11-20T15:02:14;16.85;;;13.00;;
66264;SDS011;53055;44.648;21.148;2022-11-20T15:04:48;14.35;;;11.43;;
66264;SDS011;53055;44.648;21.148;2022-11-20T15:07:24;13.60;;;11.02;;
66264;SDS011;53055;44.648;21.148;2022-11-20T15:10:09;13.90;;;12.00;;
66264;SDS011;53055;44.648;21.148;2022-11-20T15:12:47;18.75;;;15.93;;
66264;SDS011;53055;44.648;21.148;2022-11-20T15:15:15;17.92;;;16.02;;
66264;SDS011;53055;44.648;21.148;2022-11-20T15:17:42;13.63;;;12.02;;
66264;SDS011;53055;44.648;21.148;2022-11-20T15:20:10;15.82;;;12.82;;
66264;SDS011;53055;44.648;21.148;2022-11-20T15:22:37;15.05;;;12.75;;
66264;SDS011;53055;44.648;21.148;2022-11-20T15:25:10;16.17;;;14.48;;
66264;SDS011;53055;44.648;21.148;2022-11-20T15:30:05;14.30;;;11.82;;
66264;SDS011;53055;44.648;21.148;2022-11-20T15:32:38;16.83;;;15.02;;
66264;SDS011;53055;44.648;21.148;2022-11-20T15:35:04;17.33;;;14.68;;
66264;SDS011;53055;44.648;21.148;2022-11-20T15:37:30;21.27;;;18.45;;
66264;SDS011;53055;44.648;21.148;2022-11-20T15:39:56;20.95;;;17.88;;
66264;SDS011;53055;44.648;21.148;2022-11-20T15:42:22;15.07;;;12.65;;
66264;SDS011;53055;44.648;21.148;2022-11-20T15:44:48;13.40;;;11.02;;
66264;SDS011;53055;44.648;21.148;2022-11-20T15:47:14;18.85;;;14.48;;
66264;SDS011;53055;44.648;21.148;2022-11-20T15:49:42;24.55;;;19.38;;
66264;SDS011;53055;44.648;21.148;2022-11-20T15:52:08;15.60;;;12.98;;
66264;SDS011;53055;44.648;21.148;2022-11-20T15:54:34;14.73;;;11.50;;
66264;SDS011;53055;44.648;21.148;2022-11-20T15:57:00;21.88;;;17.85;;
66264;SDS011;53055;44.648;21.148;2022-11-20T15:59:27;12.90;;;9.65;;